sensor_id;sensor_type;location;lat;lon;timestamp;pressure;altitude;pressure_sealevel;temperature;humidity
76297;BME280;65104;52.994;6.552;2023-11-19T00:02:12;100600.81;;;11.09;100.00
76297;BME280;65104;52.994;6.552;2023-11-19T00:04:38;100587.97;;;11.12;100.00
76297;BME280;65104;52.994;6.552;2023-11-19T00:07:06;100597.47;;;11.16;100.00
76297;BME280;65104;52.994;6.552;2023-11-19T00:09:33;100594.81;;;11.11;100.00
76297;BME280;65104;52.994;6.552;2023-11-19T00:11:59;100592.34;;;11.17;100.00
76297;BME280;65104;52.994;6.552;2023-11-19T00:14:25;100585.56;;;11.24;100.00
76297;BME280;65104;52.994;6.552;2023-11-19T00:16:51;100585.53;;;11.22;100.00
76297;BME280;65104;52.994;6.552;2023-11-19T00:19:16;100586.47;;;11.29;100.00
76297;BME280;65104;52.994;6.552;2023-11-19T00:21:42;100581.38;;;11.32;100.00
76297;BME280;65104;52.994;6.552;2023-11-19T00:24:08;100565.09;;;11.33;100.00
76297;BME280;65104;52.994;6.552;2023-11-19T00:26:33;100568.59;;;11.40;100.00
76297;BME280;65104;52.994;6.552;2023-11-19T00:28:59;100562.66;;;11.44;100.00
76297;BME280;65104;52.994;6.552;2023-11-19T00:31:24;100552.41;;;11.48;100.00
76297;BME280;65104;52.994;6.552;2023-11-19T00:33:53;100552.38;;;11.44;100.00
76297;BME280;65104;52.994;6.552;2023-11-19T00:36:19;100549.88;;;11.51;100.00
76297;BME280;65104;52.994;6.552;2023-11-19T00:38:44;100560.25;;;11.60;100.00
76297;BME280;65104;52.994;6.552;2023-11-19T00:41:09;100555.13;;;11.65;100.00
76297;BME280;65104;52.994;6.552;2023-11-19T00:43:35;100547.47;;;11.68;100.00
76297;BME280;65104;52.994;6.552;2023-11-19T00:46:01;100538.94;;;11.74;100.00
76297;BME280;65104;52.994;6.552;2023-11-19T00:48:28;100535.47;;;11.69;100.00
76297;BME280;65104;52.994;6.552;2023-11-19T00:50:53;100535.53;;;11.75;100.00
76297;BME280;65104;52.994;6.552;2023-11-19T00:53:19;100531.28;;;11.77;100.00
76297;BME280;65104;52.994;6.552;2023-11-19T00:55:44;100538.22;;;11.85;100.00
76297;BME280;65104;52.994;6.552;2023-11-19T00:58:09;100523.66;;;11.86;100.00
76297;BME280;65104;52.994;6.552;2023-11-19T01:00:35;100529.69;;;11.89;100.00
76297;BME280;65104;52.994;6.552;2023-11-19T01:03:00;100525.44;;;11.94;100.00
76297;BME280;65104;52.994;6.552;2023-11-19T01:05:25;100523.69;;;11.92;100.00
76297;BME280;65104;52.994;6.552;2023-11-19T01:07:51;100509.97;;;11.91;100.00
76297;BME280;65104;52.994;6.552;2023-11-19T01:10:18;100505.66;;;11.90;100.00
76297;BME280;65104;52.994;6.552;2023-11-19T01:12:44;100499.69;;;11.93;100.00
76297;BME280;65104;52.994;6.552;2023-11-19T01:15:09;100503.94;;;11.88;100.00
76297;BME280;65104;52.994;6.552;2023-11-19T01:17:37;100516.81;;;11.91;100.00
76297;BME280;65104;52.994;6.552;2023-11-19T01:20:03;100515.13;;;11.93;100.00
76297;BME280;65104;52.994;6.552;2023-11-19T01:22:31;100520.31;;;11.97;100.00
76297;BME280;65104;52.994;6.552;2023-11-19T01:24:56;100524.63;;;11.98;100.00
76297;BME280;65104;52.994;6.552;2023-11-19T01:27:26;100526.34;;;11.98;100.00
76297;BME280;65104;52.994;6.552;2023-11-19T01:29:51;100532.38;;;12.03;100.00
76297;BME280;65104;52.994;6.552;2023-11-19T01:32:16;100541.84;;;12.07;100.00
76297;BME280;65104;52.994;6.552;2023-11-19T01:34:42;100541.00;;;12.11;100.00
76297;BME280;65104;52.994;6.552;2023-11-19T01:37:07;100529.81;;;12.09;100.00
76297;BME280;65104;52.994;6.552;2023-11-19T01:39:35;100532.47;;;12.15;100.00
76297;BME280;65104;52.994;6.552;2023-11-19T01:42:00;100521.31;;;12.15;100.00
76297;BME280;65104;52.994;6.552;2023-11-19T01:44:26;100519.53;;;12.11;100.00
76297;BME280;65104;52.994;6.552;2023-11-19T01:46:52;100512.66;;;12.08;100.00
76297;BME280;65104;52.994;6.552;2023-11-19T01:49:18;100509.25;;;12.11;100.00
76297;BME280;65104;52.994;6.552;2023-11-19T01:51:45;100519.50;;;12.05;100.00
76297;BME280;65104;52.994;6.552;2023-11-19T01:54:12;100504.06;;;12.05;100.00
76297;BME280;65104;52.994;6.552;2023-11-19T01:56:38;100509.19;;;12.01;100.00
76297;BME280;65104;52.994;6.552;2023-11-19T01:59:09;100497.16;;;12.00;100.00
76297;BME280;65104;52.994;6.552;2023-11-19T02:01:36;100491.16;;;11.97;100.00
76297;BME280;65104;52.994;6.552;2023-11-19T02:04:06;100484.28;;;11.96;100.00
76297;BME280;65104;52.994;6.552;2023-11-19T02:06:32;100489.44;;;11.99;100.00
76297;BME280;65104;52.994;6.552;2023-11-19T02:08:58;100486.81;;;11.91;100.00
76297;BME280;65104;52.994;6.552;2023-11-19T02:11:23;100477.38;;;11.92;100.00
76297;BME280;65104;52.994;6.552;2023-11-19T02:13:54;100476.53;;;11.90;100.00
76297;BME280;65104;52.994;6.552;2023-11-19T02:16:20;100480.75;;;11.85;100.00
76297;BME280;65104;52.994;6.552;2023-11-19T02:18:45;100484.22;;;11.91;100.00
76297;BME280;65104;52.994;6.552;2023-11-19T02:21:10;100495.38;;;11.92;100.00
76297;BME280;65104;52.994;6.552;2023-11-19T02:23:36;100501.38;;;11.91;100.00
76297;BME280;65104;52.994;6.552;2023-11-19T02:28:35;100503.94;;;11.88;100.00
76297;BME280;65104;52.994;6.552;2023-11-19T02:31:02;100503.06;;;11.86;100.00
76297;BME280;65104;52.994;6.552;2023-11-19T02:33:29;100498.72;;;11.82;100.00
76297;BME280;65104;52.994;6.552;2023-11-19T02:35:55;100491.84;;;11.78;100.00
76297;BME280;65104;52.994;6.552;2023-11-19T02:38:21;100497.91;;;11.86;100.00
76297;BME280;65104;52.994;6.552;2023-11-19T02:40:47;100499.69;;;11.93;100.00
76297;BME280;65104;52.994;6.552;2023-11-19T02:43:12;100490.25;;;11.92;100.00
76297;BME280;65104;52.994;6.552;2023-11-19T02:45:38;100496.22;;;11.91;100.00
76297;BME280;65104;52.994;6.552;2023-11-19T02:48:04;100486.81;;;11.93;100.00
76297;BME280;65104;52.994;6.552;2023-11-19T02:50:31;100479.13;;;11.96;100.00
76297;BME280;65104;52.994;6.552;2023-11-19T02:52:57;100474.84;;;11.95;100.00
76297;BME280;65104;52.994;6.552;2023-11-19T02:55:23;100486.84;;;11.99;100.00
76297;BME280;65104;52.994;6.552;2023-11-19T02:57:50;100480.81;;;11.94;100.00
76297;BME280;65104;52.994;6.552;2023-11-19T03:00:25;100478.25;;;11.92;100.00
76297;BME280;65104;52.994;6.552;2023-11-19T03:03:12;100467.94;;;11.92;100.00
76297;BME280;65104;52.994;6.552;2023-11-19T03:05:48;100473.97;;;11.93;100.00
76297;BME280;65104;52.994;6.552;2023-11-19T03:08:15;100470.50;;;11.91;100.00
76297;BME280;65104;52.994;6.552;2023-11-19T03:10:41;100470.50;;;11.92;100.00
76297;BME280;65104;52.994;6.552;2023-11-19T03:13:11;100475.66;;;11.91;100.00
76297;BME280;65104;52.994;6.552;2023-11-19T03:15:38;100473.94;;;11.88;100.00
76297;BME280;65104;52.994;6.552;2023-11-19T03:18:03;100460.22;;;11.88;100.00
76297;BME280;65104;52.994;6.552;2023-11-19T03:20:28;100466.22;;;11.88;100.00
76297;BME280;65104;52.994;6.552;2023-11-19T03:22:55;100467.09;;;11.89;100.00
76297;BME280;65104;52.994;6.552;2023-11-19T03:25:25;100466.19;;;11.87;100.00
76297;BME280;65104;52.994;6.552;2023-11-19T03:27:52;100461.03;;;11.84;100.00
76297;BME280;65104;52.994;6.552;2023-11-19T03:30:18;100455.88;;;11.84;100.00
76297;BME280;65104;52.994;6.552;2023-11-19T03:32:46;100462.72;;;11.79;100.00
76297;BME280;65104;52.994;6.552;2023-11-19T03:35:11;100475.56;;;11.82;100.00
76297;BME280;65104;52.994;6.552;2023-11-19T03:37:37;100469.56;;;11.78;100.00
76297;BME280;65104;52.994;6.552;2023-11-19T03:40:02;100454.16;;;11.80;100.00
76297;BME280;65104;52.994;6.552;2023-11-19T03:42:28;100457.59;;;11.80;100.00
76297;BME280;65104;52.994;6.552;2023-11-19T03:44:56;100448.97;;;11.77;100.00
76297;BME280;65104;52.994;6.552;2023-11-19T03:47:21;100445.56;;;11.78;100.00
76297;BME280;65104;52.994;6.552;2023-11-19T03:49:51;100439.56;;;11.79;100.00
76297;BME280;65104;52.994;6.552;2023-11-19T03:52:17;100457.56;;;11.82;100.00
76297;BME280;65104;52.994;6.552;2023-11-19T03:54:43;100450.72;;;11.79;100.00
76297;BME280;65104;52.994;6.552;2023-11-19T03:57:09;100454.13;;;11.78;100.00
76297;BME280;65104;52.994;6.552;2023-11-19T03:59:38;100440.38;;;11.76;100.00
76297;BME280;65104;52.994;6.552;2023-11-19T04:02:03;100451.56;;;11.80;100.00
76297;BME280;65104;52.994;6.552;2023-11-19T04:04:29;100444.66;;;11.76;100.00
76297;BME280;65104;52.994;6.552;2023-11-19T04:06:55;100442.13;;;11.77;100.00
76297;BME280;65104;52.994;6.552;2023-11-19T04:09:20;100441.25;;;11.77;100.00
76297;BME280;65104;52.994;6.552;2023-11-19T04:11:45;100440.38;;;11.75;100.00
76297;BME280;65104;52.994;6.552;2023-11-19T04:14:12;100439.47;;;11.73;100.00
76297;BME280;65104;52.994;6.552;2023-11-19T04:16:38;100436.00;;;11.68;100.00
76297;BME280;65104;52.994;6.552;2023-11-19T04:19:03;100436.03;;;11.74;100.00
76297;BME280;65104;52.994;6.552;2023-11-19T04:21:29;100436.97;;;11.77;100.00
76297;BME280;65104;52.994;6.552;2023-11-19T04:23:54;100429.16;;;11.73;100.00
76297;BME280;65104;52.994;6.552;2023-11-19T04:26:19;100436.03;;;11.71;100.00
76297;BME280;65104;52.994;6.552;2023-11-19T04:28:45;100425.72;;;11.72;100.00
76297;BME280;65104;52.994;6.552;2023-11-19T04:31:10;100423.13;;;11.63;100.00
76297;BME280;65104;52.994;6.552;2023-11-19T04:33:35;100429.09;;;11.59;100.00
76297;BME280;65104;52.994;6.552;2023-11-19T04:36:01;100435.06;;;11.56;100.00
76297;BME280;65104;52.994;6.552;2023-11-19T04:38:27;100426.44;;;11.51;100.00
76297;BME280;65104;52.994;6.552;2023-11-19T04:40:53;100432.47;;;11.52;100.00
76297;BME280;65104;52.994;6.552;2023-11-19T04:43:18;100435.91;;;11.52;100.00
76297;BME280;65104;52.994;6.552;2023-11-19T04:45:44;100424.66;;;11.41;100.00
76297;BME280;65104;52.994;6.552;2023-11-19T04:48:09;100428.94;;;11.41;100.00
76297;BME280;65104;52.994;6.552;2023-11-19T04:50:35;100423.75;;;11.35;100.00
76297;BME280;65104;52.994;6.552;2023-11-19T04:53:00;100419.38;;;11.29;100.00
76297;BME280;65104;52.994;6.552;2023-11-19T04:55:25;100425.44;;;11.33;100.00
76297;BME280;65104;52.994;6.552;2023-11-19T04:57:54;100429.66;;;11.29;100.00
76297;BME280;65104;52.994;6.552;2023-11-19T05:00:19;100436.50;;;11.24;100.00
76297;BME280;65104;52.994;6.552;2023-11-19T05:02:46;100444.22;;;11.28;100.00
76297;BME280;65104;52.994;6.552;2023-11-19T05:05:12;100435.66;;;11.29;100.00
76297;BME280;65104;52.994;6.552;2023-11-19T05:07:37;100430.56;;;11.33;100.00
76297;BME280;65104;52.994;6.552;2023-11-19T05:10:03;100445.09;;;11.31;100.00
76297;BME280;65104;52.994;6.552;2023-11-19T05:12:29;100438.25;;;11.31;100.00
76297;BME280;65104;52.994;6.552;2023-11-19T05:14:55;100430.53;;;11.26;100.00
76297;BME280;65104;52.994;6.552;2023-11-19T05:17:20;100432.31;;;11.35;100.00
76297;BME280;65104;52.994;6.552;2023-11-19T05:19:46;100438.34;;;11.40;100.00
76297;BME280;65104;52.994;6.552;2023-11-19T05:22:13;100447.78;;;11.41;100.00
76297;BME280;65104;52.994;6.552;2023-11-19T05:24:38;100439.22;;;11.45;100.00
76297;BME280;65104;52.994;6.552;2023-11-19T05:27:04;100451.25;;;11.43;100.00
76297;BME280;65104;52.994;6.552;2023-11-19T05:29:30;100439.22;;;11.42;100.00
76297;BME280;65104;52.994;6.552;2023-11-19T05:31:55;100421.19;;;11.39;100.00
76297;BME280;65104;52.994;6.552;2023-11-19T05:34:21;100442.69;;;11.47;100.00
76297;BME280;65104;52.994;6.552;2023-11-19T05:36:46;100441.81;;;11.44;100.00
76297;BME280;65104;52.994;6.552;2023-11-19T05:39:12;100445.22;;;11.43;100.00
76297;BME280;65104;52.994;6.552;2023-11-19T05:41:38;100447.78;;;11.41;100.00
76297;BME280;65104;52.994;6.552;2023-11-19T05:44:04;100439.19;;;11.36;100.00
76297;BME280;65104;52.994;6.552;2023-11-19T05:46:29;100458.00;;;11.37;100.00
76297;BME280;65104;52.994;6.552;2023-11-19T05:48:54;100449.50;;;11.42;100.00
76297;BME280;65104;52.994;6.552;2023-11-19T05:51:20;100458.03;;;11.38;100.00
76297;BME280;65104;52.994;6.552;2023-11-19T05:53:45;100461.44;;;11.37;100.00
76297;BME280;65104;52.994;6.552;2023-11-19T05:56:11;100451.16;;;11.37;100.00
76297;BME280;65104;52.994;6.552;2023-11-19T05:58:36;100454.56;;;11.33;100.00
76297;BME280;65104;52.994;6.552;2023-11-19T06:01:02;100455.34;;;11.27;100.00
76297;BME280;65104;52.994;6.552;2023-11-19T06:03:28;100467.41;;;11.33;100.00
76297;BME280;65104;52.994;6.552;2023-11-19T06:05:54;100457.09;;;11.30;100.00
76297;BME280;65104;52.994;6.552;2023-11-19T06:08:20;100453.66;;;11.26;100.00
76297;BME280;65104;52.994;6.552;2023-11-19T06:10:46;100461.41;;;11.31;100.00
76297;BME280;65104;52.994;6.552;2023-11-19T06:13:12;100470.81;;;11.31;100.00
76297;BME280;65104;52.994;6.552;2023-11-19T06:15:41;100476.78;;;11.25;100.00
76297;BME280;65104;52.994;6.552;2023-11-19T06:18:06;100469.06;;;11.28;100.00
76297;BME280;65104;52.994;6.552;2023-11-19T06:20:32;100463.06;;;11.26;100.00
76297;BME280;65104;52.994;6.552;2023-11-19T06:22:59;100469.09;;;11.26;100.00
76297;BME280;65104;52.994;6.552;2023-11-19T06:25:24;100464.81;;;11.30;100.00
76297;BME280;65104;52.994;6.552;2023-11-19T06:27:50;100475.09;;;11.27;100.00
76297;BME280;65104;52.994;6.552;2023-11-19T06:30:16;100475.88;;;11.23;100.00
76297;BME280;65104;52.994;6.552;2023-11-19T06:32:41;100481.91;;;11.25;100.00
76297;BME280;65104;52.994;6.552;2023-11-19T06:35:07;100471.59;;;11.22;100.00
76297;BME280;65104;52.994;6.552;2023-11-19T06:37:33;100474.13;;;11.19;100.00
76297;BME280;65104;52.994;6.552;2023-11-19T06:39:59;100469.84;;;11.21;100.00
76297;BME280;65104;52.994;6.552;2023-11-19T06:42:24;100477.56;;;11.18;100.00
76297;BME280;65104;52.994;6.552;2023-11-19T06:44:50;100478.47;;;11.23;100.00
76297;BME280;65104;52.994;6.552;2023-11-19T06:47:16;100470.72;;;11.21;100.00
76297;BME280;65104;52.994;6.552;2023-11-19T06:49:44;100474.13;;;11.19;100.00
76297;BME280;65104;52.994;6.552;2023-11-19T06:52:09;100477.56;;;11.21;100.00
76297;BME280;65104;52.994;6.552;2023-11-19T06:54:34;100476.69;;;11.19;100.00
76297;BME280;65104;52.994;6.552;2023-11-19T06:57:00;100486.16;;;11.21;100.00
76297;BME280;65104;52.994;6.552;2023-11-19T06:59:25;100478.47;;;11.24;100.00
76297;BME280;65104;52.994;6.552;2023-11-19T07:01:50;100485.28;;;11.21;100.00
76297;BME280;65104;52.994;6.552;2023-11-19T07:04:16;100482.72;;;11.22;100.00
76297;BME280;65104;52.994;6.552;2023-11-19T07:06:41;100478.47;;;11.23;100.00
76297;BME280;65104;52.994;6.552;2023-11-19T07:09:07;100479.38;;;11.26;100.00
76297;BME280;65104;52.994;6.552;2023-11-19T07:11:39;100487.00;;;11.22;100.00
76297;BME280;65104;52.994;6.552;2023-11-19T07:14:05;100481.03;;;11.23;100.00
76297;BME280;65104;52.994;6.552;2023-11-19T07:16:34;100473.28;;;11.20;100.00
76297;BME280;65104;52.994;6.552;2023-11-19T07:19:00;100477.63;;;11.25;100.00
76297;BME280;65104;52.994;6.552;2023-11-19T07:21:26;100484.41;;;11.20;100.00
76297;BME280;65104;52.994;6.552;2023-11-19T07:23:53;100483.56;;;11.20;100.00
76297;BME280;65104;52.994;6.552;2023-11-19T07:26:19;100497.34;;;11.26;100.00
76297;BME280;65104;52.994;6.552;2023-11-19T07:28:44;100489.56;;;11.20;100.00
76297;BME280;65104;52.994;6.552;2023-11-19T07:31:10;100486.97;;;11.19;100.00
76297;BME280;65104;52.994;6.552;2023-11-19T07:33:36;100490.41;;;11.19;100.00
76297;BME280;65104;52.994;6.552;2023-11-19T07:36:02;100493.81;;;11.17;100.00
76297;BME280;65104;52.994;6.552;2023-11-19T07:38:27;100498.97;;;11.20;100.00
76297;BME280;65104;52.994;6.552;2023-11-19T07:40:53;100501.50;;;11.15;100.00
76297;BME280;65104;52.994;6.552;2023-11-19T07:43:18;100486.97;;;11.17;100.00
76297;BME280;65104;52.994;6.552;2023-11-19T07:45:43;100495.53;;;11.16;100.00
76297;BME280;65104;52.994;6.552;2023-11-19T07:48:10;100494.59;;;11.08;100.00
76297;BME280;65104;52.994;6.552;2023-11-19T07:50:38;100507.38;;;11.04;100.00
76297;BME280;65104;52.994;6.552;2023-11-19T07:53:03;100506.53;;;11.05;100.00
76297;BME280;65104;52.994;6.552;2023-11-19T07:55:29;100511.69;;;11.06;100.00
76297;BME280;65104;52.994;6.552;2023-11-19T07:57:55;100504.81;;;11.05;100.00
76297;BME280;65104;52.994;6.552;2023-11-19T08:00:21;100506.59;;;11.11;100.00
76297;BME280;65104;52.994;6.552;2023-11-19T08:02:46;100508.34;;;11.15;100.00
76297;BME280;65104;52.994;6.552;2023-11-19T08:05:11;100525.50;;;11.16;100.00
76297;BME280;65104;52.994;6.552;2023-11-19T08:07:37;100517.78;;;11.16;100.00
76297;BME280;65104;52.994;6.552;2023-11-19T08:10:04;100516.09;;;11.18;100.00
76297;BME280;65104;52.994;6.552;2023-11-19T08:12:30;100516.13;;;11.21;100.00
76297;BME280;65104;52.994;6.552;2023-11-19T08:14:56;100527.31;;;11.24;100.00
76297;BME280;65104;52.994;6.552;2023-11-19T08:17:23;100519.56;;;11.23;100.00
76297;BME280;65104;52.994;6.552;2023-11-19T08:19:49;100529.06;;;11.28;100.00
76297;BME280;65104;52.994;6.552;2023-11-19T08:22:14;100517.94;;;11.31;100.00
76297;BME280;65104;52.994;6.552;2023-11-19T08:24:39;100524.78;;;11.29;100.00
76297;BME280;65104;52.994;6.552;2023-11-19T08:27:05;100512.81;;;11.31;100.00
76297;BME280;65104;52.994;6.552;2023-11-19T08:29:30;100526.56;;;11.38;100.00
76297;BME280;65104;52.994;6.552;2023-11-19T08:31:55;100529.16;;;11.39;100.00
76297;BME280;65104;52.994;6.552;2023-11-19T08:34:21;100530.00;;;11.38;100.00
76297;BME280;65104;52.994;6.552;2023-11-19T08:36:50;100535.97;;;11.34;100.00
76297;BME280;65104;52.994;6.552;2023-11-19T08:39:15;100532.53;;;11.32;100.00
76297;BME280;65104;52.994;6.552;2023-11-19T08:41:40;100541.84;;;11.22;100.00
76297;BME280;65104;52.994;6.552;2023-11-19T08:44:07;100536.69;;;11.22;100.00
76297;BME280;65104;52.994;6.552;2023-11-19T08:46:32;100534.09;;;11.21;100.00
76297;BME280;65104;52.994;6.552;2023-11-19T08:48:57;100540.88;;;11.13;100.00
76297;BME280;65104;52.994;6.552;2023-11-19T08:51:24;100546.84;;;11.10;100.00
76297;BME280;65104;52.994;6.552;2023-11-19T08:53:50;100539.16;;;11.12;100.00
76297;BME280;65104;52.994;6.552;2023-11-19T08:56:15;100534.91;;;11.14;100.00
76297;BME280;65104;52.994;6.552;2023-11-19T08:58:40;100536.66;;;11.16;100.00
76297;BME280;65104;52.994;6.552;2023-11-19T09:01:06;100540.94;;;11.17;100.00
76297;BME280;65104;52.994;6.552;2023-11-19T09:03:31;100540.97;;;11.22;100.00
76297;BME280;65104;52.994;6.552;2023-11-19T09:05:57;100541.81;;;11.21;100.00
76297;BME280;65104;52.994;6.552;2023-11-19T09:08:22;100533.31;;;11.28;100.00
76297;BME280;65104;52.994;6.552;2023-11-19T09:10:47;100539.34;;;11.30;100.00
76297;BME280;65104;52.994;6.552;2023-11-19T09:13:13;100544.47;;;11.28;100.00
76297;BME280;65104;52.994;6.552;2023-11-19T09:15:38;100552.22;;;11.30;100.00
76297;BME280;65104;52.994;6.552;2023-11-19T09:18:04;100547.09;;;11.33;100.00
76297;BME280;65104;52.994;6.552;2023-11-19T09:20:30;100547.97;;;11.34;100.00
76297;BME280;65104;52.994;6.552;2023-11-19T09:23:03;100548.84;;;11.37;100.00
76297;BME280;65104;52.994;6.552;2023-11-19T09:25:28;100554.91;;;11.42;100.00
76297;BME280;65104;52.994;6.552;2023-11-19T09:27:53;100533.50;;;11.43;100.00
76297;BME280;65104;52.994;6.552;2023-11-19T09:30:19;100546.38;;;11.45;100.00
76297;BME280;65104;52.994;6.552;2023-11-19T09:32:44;100543.88;;;11.52;100.00
76297;BME280;65104;52.994;6.552;2023-11-19T09:35:10;100549.91;;;11.53;100.00
76297;BME280;65104;52.994;6.552;2023-11-19T09:37:38;100551.63;;;11.55;100.00
76297;BME280;65104;52.994;6.552;2023-11-19T09:40:05;100541.38;;;11.58;100.00
76297;BME280;65104;52.994;6.552;2023-11-19T09:42:39;100545.69;;;11.64;100.00
76297;BME280;65104;52.994;6.552;2023-11-19T09:45:14;100544.84;;;11.63;100.00
76297;BME280;65104;52.994;6.552;2023-11-19T09:47:43;100536.34;;;11.69;100.00
76297;BME280;65104;52.994;6.552;2023-11-19T09:50:16;100538.88;;;11.68;100.00
76297;BME280;65104;52.994;6.552;2023-11-19T09:52:42;100539.69;;;11.63;100.00
76297;BME280;65104;52.994;6.552;2023-11-19T09:55:07;100545.75;;;11.67;100.00
76297;BME280;65104;52.994;6.552;2023-11-19T09:57:33;100534.59;;;11.68;100.00
76297;BME280;65104;52.994;6.552;2023-11-19T10:00:01;100539.88;;;11.77;100.00
76297;BME280;65104;52.994;6.552;2023-11-19T10:02:31;100539.88;;;11.79;100.00
76297;BME280;65104;52.994;6.552;2023-11-19T10:04:59;100542.41;;;11.76;100.00
76297;BME280;65104;52.994;6.552;2023-11-19T10:07:25;100539.84;;;11.76;100.00
76297;BME280;65104;52.994;6.552;2023-11-19T10:09:50;100544.06;;;11.74;100.00
76297;BME280;65104;52.994;6.552;2023-11-19T10:12:16;100538.06;;;11.70;100.00
76297;BME280;65104;52.994;6.552;2023-11-19T10:14:42;100538.09;;;11.72;100.00
76297;BME280;65104;52.994;6.552;2023-11-19T10:17:08;100545.78;;;11.72;100.00
76297;BME280;65104;52.994;6.552;2023-11-19T10:19:34;100546.66;;;11.74;100.00
76297;BME280;65104;52.994;6.552;2023-11-19T10:22:06;100545.00;;;11.77;100.00
76297;BME280;65104;52.994;6.552;2023-11-19T10:24:32;100537.19;;;11.73;100.00
76297;BME280;65104;52.994;6.552;2023-11-19T10:27:02;100533.69;;;11.64;100.00
76297;BME280;65104;52.994;6.552;2023-11-19T10:29:29;100536.28;;;11.64;100.00
76297;BME280;65104;52.994;6.552;2023-11-19T10:31:56;100529.41;;;11.62;100.00
76297;BME280;65104;52.994;6.552;2023-11-19T10:34:26;100539.69;;;11.62;100.00
76297;BME280;65104;52.994;6.552;2023-11-19T10:36:52;100532.78;;;11.58;100.00
76297;BME280;65104;52.994;6.552;2023-11-19T10:39:17;100537.81;;;11.46;100.00
76297;BME280;65104;52.994;6.552;2023-11-19T10:41:43;100538.59;;;11.40;100.00
76297;BME280;65104;52.994;6.552;2023-11-19T10:44:08;100541.00;;;11.23;100.00
76297;BME280;65104;52.994;6.552;2023-11-19T10:49:04;100545.97;;;11.10;100.00
76297;BME280;65104;52.994;6.552;2023-11-19T10:51:29;100560.53;;;11.08;100.00
76297;BME280;65104;52.994;6.552;2023-11-19T10:54:04;100561.38;;;11.10;100.00
76297;BME280;65104;52.994;6.552;2023-11-19T10:56:33;100559.66;;;11.07;100.00
76297;BME280;65104;52.994;6.552;2023-11-19T10:59:00;100546.78;;;11.06;100.00
76297;BME280;65104;52.994;6.552;2023-11-19T11:01:28;100551.94;;;11.06;100.00
76297;BME280;65104;52.994;6.552;2023-11-19T11:03:59;100552.03;;;11.13;100.00
76297;BME280;65104;52.994;6.552;2023-11-19T11:06:26;100549.50;;;11.16;100.00
76297;BME280;65104;52.994;6.552;2023-11-19T11:08:53;100550.38;;;11.20;100.00
76297;BME280;65104;52.994;6.552;2023-11-19T11:11:19;100550.38;;;11.20;100.00
76297;BME280;65104;52.994;6.552;2023-11-19T11:13:49;100546.19;;;11.29;100.00
76297;BME280;65104;52.994;6.552;2023-11-19T11:16:18;100533.72;;;11.63;100.00
76297;BME280;65104;52.994;6.552;2023-11-19T11:18:45;100530.59;;;11.99;100.00
76297;BME280;65104;52.994;6.552;2023-11-19T11:21:13;100531.56;;;12.12;100.00
76297;BME280;65104;52.994;6.552;2023-11-19T11:29:04;100528.81;;;11.87;100.00
76297;BME280;65104;52.994;6.552;2023-11-19T11:39:53;100522.81;;;11.91;100.00
76297;BME280;65104;52.994;6.552;2023-11-19T11:45:01;100519.47;;;12.00;100.00
76297;BME280;65104;52.994;6.552;2023-11-19T11:55:24;100523.84;;;12.07;100.00
76297;BME280;65104;52.994;6.552;2023-11-19T11:57:50;100512.59;;;11.97;100.00
76297;BME280;65104;52.994;6.552;2023-11-19T12:00:42;100519.53;;;12.06;100.00
76297;BME280;65104;52.994;6.552;2023-11-19T12:03:08;100517.84;;;12.11;100.00
76297;BME280;65104;52.994;6.552;2023-11-19T12:05:45;100513.53;;;12.06;100.00
76297;BME280;65104;52.994;6.552;2023-11-19T12:08:14;100512.59;;;12.00;100.00
76297;BME280;65104;52.994;6.552;2023-11-19T12:10:53;100505.69;;;11.89;100.00
76297;BME280;65104;52.994;6.552;2023-11-19T12:13:19;100509.09;;;11.89;100.00
76297;BME280;65104;52.994;6.552;2023-11-19T12:18:23;100513.41;;;11.92;100.00
76297;BME280;65104;52.994;6.552;2023-11-19T12:20:49;100511.63;;;11.85;100.00
76297;BME280;65104;52.994;6.552;2023-11-19T12:23:15;100507.38;;;11.87;100.00
76297;BME280;65104;52.994;6.552;2023-11-19T12:25:40;100514.25;;;11.89;100.00
76297;BME280;65104;52.994;6.552;2023-11-19T12:28:11;100513.38;;;11.89;100.00
76297;BME280;65104;52.994;6.552;2023-11-19T12:30:37;100515.06;;;11.84;100.00
76297;BME280;65104;52.994;6.552;2023-11-19T12:33:08;100513.31;;;11.80;100.00
76297;BME280;65104;52.994;6.552;2023-11-19T12:35:39;100515.06;;;11.85;100.00
76297;BME280;65104;52.994;6.552;2023-11-19T12:38:04;100509.91;;;11.84;100.00
76297;BME280;65104;52.994;6.552;2023-11-19T12:40:30;100508.22;;;11.87;100.00
76297;BME280;65104;52.994;6.552;2023-11-19T12:42:55;100506.53;;;11.88;100.00
76297;BME280;65104;52.994;6.552;2023-11-19T12:45:21;100506.53;;;11.91;100.00
76297;BME280;65104;52.994;6.552;2023-11-19T12:47:48;100509.97;;;11.93;100.00
76297;BME280;65104;52.994;6.552;2023-11-19T12:50:15;100503.13;;;11.95;100.00
76297;BME280;65104;52.994;6.552;2023-11-19T12:52:42;100498.03;;;11.98;100.00
76297;BME280;65104;52.994;6.552;2023-11-19T12:55:33;100513.50;;;12.04;100.00
76297;BME280;65104;52.994;6.552;2023-11-19T12:57:58;100504.91;;;12.02;100.00
76297;BME280;65104;52.994;6.552;2023-11-19T13:00:26;100503.19;;;12.01;100.00
76297;BME280;65104;52.994;6.552;2023-11-19T13:02:53;100501.47;;;12.03;100.00
76297;BME280;65104;52.994;6.552;2023-11-19T13:05:29;100503.19;;;12.02;100.00
76297;BME280;65104;52.994;6.552;2023-11-19T13:08:09;100505.72;;;11.96;100.00
76297;BME280;65104;52.994;6.552;2023-11-19T13:11:04;100499.69;;;11.93;100.00